createdAt,value
2017-09-27T00:01:26.306Z,9.77
2017-09-27T00:03:53.879Z,9.63
2017-09-27T00:06:21.487Z,10.60
2017-09-27T00:08:49.654Z,9.90
2017-09-27T00:11:17.629Z,9.97
2017-09-27T00:13:47.072Z,10.07
2017-09-27T00:16:15.429Z,10.70
2017-09-27T00:18:43.314Z,10.33
2017-09-27T00:21:10.933Z,10.17
2017-09-27T00:23:38.872Z,11.20
2017-09-27T00:26:06.436Z,12.53
2017-09-27T00:28:34.023Z,12.67
2017-09-27T00:31:02.268Z,11.67
2017-09-27T00:33:29.865Z,11.23
2017-09-27T00:35:57.439Z,11.17
2017-09-27T00:38:25.016Z,12.43
2017-09-27T00:40:52.740Z,11.70
2017-09-27T00:43:20.714Z,9.50
2017-09-27T00:45:48.660Z,9.87
2017-09-27T00:48:16.960Z,9.80
2017-09-27T00:50:44.545Z,10.50
2017-09-27T00:53:13.363Z,10.40
2017-09-27T00:55:40.983Z,11.27
2017-09-27T00:58:08.549Z,10.40
2017-09-27T01:00:36.143Z,10.20
2017-09-27T01:03:03.723Z,10.30
2017-09-27T01:05:32.755Z,10.80
2017-09-27T01:08:00.799Z,9.70
2017-09-27T01:10:29.679Z,11.20
2017-09-27T01:12:59.948Z,10.37
2017-09-27T01:15:28.314Z,9.87
2017-09-27T01:17:56.293Z,9.93
2017-09-27T01:20:25.206Z,11.37
2017-09-27T01:22:53.221Z,10.90
2017-09-27T01:25:20.789Z,11.53
2017-09-27T01:27:50.196Z,10.33
2017-09-27T01:30:17.762Z,10.37
2017-09-27T01:32:45.355Z,11.20
2017-09-27T01:35:14.386Z,10.20
2017-09-27T01:37:44.546Z,10.60
2017-09-27T01:40:12.479Z,10.10
2017-09-27T01:42:42.257Z,12.63
2017-09-27T01:45:10.305Z,11.63
2017-09-27T01:47:38.358Z,12.43
2017-09-27T01:50:06.970Z,11.90
2017-09-27T01:52:35.766Z,12.17
2017-09-27T01:55:04.669Z,13.53
2017-09-27T01:57:33.561Z,12.83
2017-09-27T02:00:01.153Z,12.57
2017-09-27T02:02:29.688Z,11.93
2017-09-27T02:04:57.629Z,12.27
2017-09-27T02:07:25.597Z,10.30
2017-09-27T02:09:54.741Z,10.13
2017-09-27T02:12:22.344Z,10.23
2017-09-27T02:14:49.934Z,10.00
2017-09-27T02:17:18.303Z,10.10
2017-09-27T02:19:46.321Z,10.57
2017-09-27T02:22:14.552Z,10.93
2017-09-27T02:24:43.581Z,9.83
2017-09-27T02:27:11.927Z,9.63
2017-09-27T02:29:39.562Z,9.70
2017-09-27T02:32:09.246Z,9.70
2017-09-27T02:34:37.290Z,10.03
2017-09-27T02:37:05.210Z,10.43
2017-09-27T02:39:33.197Z,10.57
2017-09-27T02:42:03.239Z,10.73
2017-09-27T02:44:30.832Z,11.67
2017-09-27T02:46:58.857Z,11.70
2017-09-27T02:49:26.711Z,12.70
2017-09-27T02:51:54.764Z,13.70
2017-09-27T02:54:23.379Z,13.07
2017-09-27T02:56:52.411Z,12.70
2017-09-27T02:59:21.401Z,11.73
2017-09-27T03:01:48.990Z,12.57
2017-09-27T03:04:16.969Z,13.40
2017-09-27T03:06:47.189Z,13.77
2017-09-27T03:09:14.785Z,14.13
2017-09-27T03:11:44.128Z,13.30
2017-09-27T03:14:13.163Z,13.60
2017-09-27T03:16:40.733Z,13.30
2017-09-27T03:19:08.356Z,13.20
2017-09-27T03:21:35.985Z,13.83
2017-09-27T03:24:04.060Z,14.23
2017-09-27T03:26:32.819Z,14.07
2017-09-27T03:29:00.398Z,14.03
2017-09-27T03:31:27.964Z,13.60
2017-09-27T03:33:56.864Z,13.50
2017-09-27T03:36:24.439Z,12.80
2017-09-27T03:38:54.094Z,14.50
2017-09-27T03:41:21.670Z,13.97
2017-09-27T03:43:49.281Z,13.93
2017-09-27T03:46:16.870Z,14.57
2017-09-27T03:48:44.553Z,13.97
2017-09-27T03:51:12.768Z,15.07
2017-09-27T03:53:40.357Z,15.90
2017-09-27T03:56:10.634Z,14.40
2017-09-27T03:58:38.237Z,13.33
2017-09-27T04:01:07.296Z,14.10
2017-09-27T04:03:34.865Z,14.80
2017-09-27T04:06:02.453Z,15.70
2017-09-27T04:08:31.803Z,15.17
2017-09-27T04:10:59.430Z,18.57
2017-09-27T04:13:28.468Z,20.23
2017-09-27T04:15:56.037Z,19.67
2017-09-27T04:18:23.656Z,19.70
2017-09-27T04:20:52.003Z,20.63
2017-09-27T04:23:19.879Z,17.10
2017-09-27T04:25:47.466Z,17.33
2017-09-27T04:28:15.061Z,16.30
2017-09-27T04:30:42.673Z,16.20
2017-09-27T04:33:10.262Z,15.97
2017-09-27T04:35:39.389Z,20.07
2017-09-27T04:38:06.976Z,22.83
2017-09-27T04:40:36.428Z,23.73
2017-09-27T04:43:04.062Z,20.30
2017-09-27T04:45:31.632Z,20.97
2017-09-27T04:47:59.230Z,21.03
2017-09-27T04:50:28.257Z,21.07
2017-09-27T04:52:56.251Z,20.53
2017-09-27T04:55:24.255Z,21.50
2017-09-27T04:57:53.830Z,20.20
2017-09-27T05:00:22.023Z,21.97
2017-09-27T05:02:49.948Z,20.80
2017-09-27T05:05:17.954Z,19.60
2017-09-27T05:07:46.874Z,19.80
2017-09-27T05:10:16.797Z,22.50
2017-09-27T05:12:44.370Z,21.70
2017-09-27T05:15:11.953Z,23.03
2017-09-27T05:17:40.263Z,20.37
2017-09-27T05:20:08.179Z,21.20
2017-09-27T05:22:35.766Z,21.43
2017-09-27T05:25:03.722Z,22.63
2017-09-27T05:27:31.295Z,21.13
2017-09-27T05:30:01.403Z,21.40
2017-09-27T05:32:29.005Z,23.60
2017-09-27T05:34:56.584Z,22.50
2017-09-27T05:37:24.154Z,21.90
2017-09-27T05:39:51.724Z,24.33
2017-09-27T05:42:19.751Z,24.20
2017-09-27T05:44:47.689Z,25.17
2017-09-27T05:47:15.306Z,24.03
2017-09-27T05:49:44.728Z,24.50
2017-09-27T05:52:15.714Z,24.67
2017-09-27T05:54:43.318Z,26.03
2017-09-27T05:57:10.934Z,24.80
2017-09-27T05:59:38.878Z,26.23
2017-09-27T06:02:06.506Z,24.53
2017-09-27T06:04:35.502Z,23.70
2017-09-27T06:07:03.123Z,23.93
2017-09-27T06:09:31.504Z,24.30
2017-09-27T06:11:59.158Z,24.10
2017-09-27T06:14:28.054Z,25.20
2017-09-27T06:16:55.845Z,26.77
2017-09-27T06:19:23.445Z,28.20
2017-09-27T06:21:52.499Z,27.50
2017-09-27T06:24:21.508Z,23.37
2017-09-27T06:26:49.226Z,25.47
2017-09-27T06:29:17.810Z,27.73
2017-09-27T06:31:47.057Z,25.10
2017-09-27T06:34:14.639Z,26.03
2017-09-27T06:36:43.533Z,25.10
2017-09-27T06:39:11.105Z,25.17
2017-09-27T06:41:38.784Z,24.93
2017-09-27T06:44:06.382Z,23.43
2017-09-27T06:46:33.997Z,23.53
2017-09-27T06:49:01.599Z,23.00
2017-09-27T06:51:32.065Z,24.10
2017-09-27T06:53:59.668Z,23.70
2017-09-27T06:56:27.728Z,24.30
2017-09-27T06:58:55.308Z,25.07
2017-09-27T07:01:22.919Z,25.40
2017-09-27T07:03:50.928Z,24.20
2017-09-27T07:06:18.724Z,27.60
2017-09-27T07:08:48.956Z,28.63
2017-09-27T07:11:20.294Z,27.57
2017-09-27T07:13:48.021Z,29.17
2017-09-27T07:16:15.927Z,32.10
2017-09-27T07:18:43.510Z,32.10
2017-09-27T07:21:11.986Z,32.70
2017-09-27T07:23:39.577Z,29.60
2017-09-27T07:26:07.176Z,29.67
2017-09-27T07:28:35.683Z,30.00
2017-09-27T07:31:04.838Z,28.70
2017-09-27T07:33:32.477Z,30.43
2017-09-27T07:36:00.821Z,30.30
2017-09-27T07:38:28.409Z,25.20
2017-09-27T07:40:56.017Z,24.03
2017-09-27T07:43:23.631Z,27.13
2017-09-27T07:45:51.233Z,27.60
2017-09-27T07:48:18.813Z,27.40
2017-09-27T07:50:46.398Z,27.20
2017-09-27T07:53:16.627Z,25.67
2017-09-27T07:55:44.248Z,26.40
2017-09-27T07:58:15.225Z,30.07
2017-09-27T08:00:42.829Z,29.73
2017-09-27T08:03:10.427Z,28.40
2017-09-27T08:05:38.028Z,30.27
2017-09-27T08:08:07.900Z,27.40
2017-09-27T08:10:36.127Z,28.20
2017-09-27T08:13:03.728Z,30.23
2017-09-27T08:15:32.750Z,30.77
2017-09-27T08:18:00.888Z,30.40
2017-09-27T08:20:34.134Z,28.60
2017-09-27T08:23:02.131Z,29.40
2017-09-27T08:25:29.722Z,29.60
2017-09-27T08:27:57.322Z,31.60
2017-09-27T08:30:26.202Z,27.87
2017-09-27T08:32:53.779Z,30.20
2017-09-27T08:35:24.392Z,31.50
2017-09-27T08:37:53.683Z,30.47
2017-09-27T08:40:21.256Z,30.77
2017-09-27T08:42:49.241Z,32.37
2017-09-27T08:45:18.199Z,33.37
2017-09-27T08:47:47.907Z,33.17
2017-09-27T08:50:15.499Z,31.83
2017-09-27T08:52:43.091Z,33.33
2017-09-27T08:55:12.146Z,34.40
2017-09-27T08:57:41.525Z,33.50
2017-09-27T09:00:10.515Z,34.20
2017-09-27T09:02:39.428Z,35.10
2017-09-27T09:05:07.112Z,34.50
2017-09-27T09:07:36.681Z,33.60
2017-09-27T09:10:04.736Z,36.03
2017-09-27T09:12:32.315Z,33.80
2017-09-27T09:14:59.931Z,34.30
2017-09-27T09:17:27.518Z,34.90
2017-09-27T09:19:55.450Z,33.33
2017-09-27T09:22:23.526Z,35.87
2017-09-27T09:24:54.042Z,37.77
2017-09-27T09:27:22.374Z,35.20
2017-09-27T09:29:51.377Z,35.23
2017-09-27T09:32:18.965Z,36.37
2017-09-27T09:34:46.548Z,33.70
2017-09-27T09:37:14.181Z,33.73
2017-09-27T09:39:42.190Z,35.50
2017-09-27T09:42:10.186Z,35.73
2017-09-27T09:44:37.766Z,34.90
2017-09-27T09:47:05.394Z,34.63
2017-09-27T09:49:32.998Z,32.97
2017-09-27T09:52:00.605Z,33.13
2017-09-27T09:54:28.206Z,33.47
2017-09-27T09:56:56.218Z,34.70
2017-09-27T09:59:24.566Z,32.67
2017-09-27T10:01:52.504Z,33.97
2017-09-27T10:04:20.091Z,34.30
2017-09-27T10:06:48.013Z,35.27
2017-09-27T10:09:15.611Z,35.20
2017-09-27T10:11:44.510Z,35.47
2017-09-27T10:14:12.525Z,37.00
2017-09-27T10:16:40.455Z,35.87
2017-09-27T10:19:08.169Z,34.67
2017-09-27T10:21:36.192Z,35.30
2017-09-27T10:24:04.429Z,35.80
2017-09-27T10:26:33.816Z,35.50
2017-09-27T10:29:01.794Z,35.30
2017-09-27T10:31:30.891Z,35.97
2017-09-27T10:33:58.501Z,35.07
2017-09-27T10:36:26.530Z,35.83
2017-09-27T10:38:54.123Z,36.73
2017-09-27T10:41:21.738Z,38.20
2017-09-27T10:43:49.330Z,38.30
2017-09-27T10:46:16.964Z,36.40
2017-09-27T10:48:45.793Z,36.70
2017-09-27T10:51:14.783Z,35.80
2017-09-27T10:53:43.695Z,37.87
2017-09-27T10:56:11.310Z,36.33
2017-09-27T10:58:39.772Z,38.90
2017-09-27T11:01:08.886Z,36.60
2017-09-27T11:03:36.968Z,37.43
2017-09-27T11:06:05.982Z,39.40
2017-09-27T11:08:35.185Z,37.93
2017-09-27T11:11:02.779Z,36.90
2017-09-27T11:13:30.869Z,36.27
2017-09-27T11:15:59.154Z,36.00
2017-09-27T11:18:26.773Z,37.90
2017-09-27T11:20:54.350Z,39.23
2017-09-27T11:23:22.009Z,34.93
2017-09-27T11:25:49.587Z,36.27
2017-09-27T11:28:17.189Z,33.30
2017-09-27T11:30:45.295Z,33.83
2017-09-27T11:33:12.866Z,33.60
2017-09-27T11:35:40.869Z,32.40
2017-09-27T11:38:09.078Z,31.63
2017-09-27T11:40:38.036Z,32.43
2017-09-27T11:43:06.610Z,33.73
2017-09-27T11:45:36.058Z,32.93
2017-09-27T11:48:03.635Z,31.00
2017-09-27T11:50:31.225Z,31.80
2017-09-27T11:52:59.175Z,25.53
2017-09-27T11:55:27.139Z,27.37
2017-09-27T11:57:55.134Z,29.37
2017-09-27T12:00:22.684Z,28.10
2017-09-27T12:02:51.851Z,26.07
2017-09-27T12:05:19.455Z,26.33
2017-09-27T12:07:47.048Z,24.20
2017-09-27T12:10:14.621Z,23.43
2017-09-27T12:12:42.231Z,25.20
2017-09-27T12:15:09.790Z,26.43
2017-09-27T12:17:38.638Z,24.73
2017-09-27T12:20:07.530Z,23.47
2017-09-27T12:22:35.380Z,23.10
2017-09-27T12:25:02.937Z,22.03
2017-09-27T12:27:31.048Z,22.30
2017-09-27T12:29:58.733Z,23.30
2017-09-27T12:32:26.295Z,20.00
2017-09-27T12:34:54.586Z,15.07
2017-09-27T12:37:22.535Z,14.43
2017-09-27T12:39:50.116Z,13.83
2017-09-27T12:42:19.363Z,13.23
2017-09-27T12:44:46.948Z,13.13
2017-09-27T12:47:14.517Z,12.20
2017-09-27T12:49:42.097Z,13.00
2017-09-27T12:52:10.044Z,14.80
2017-09-27T12:54:38.239Z,13.90
2017-09-27T12:57:05.816Z,12.90
2017-09-27T12:59:33.752Z,11.47
2017-09-27T13:02:01.334Z,10.10
2017-09-27T13:04:28.916Z,10.20
2017-09-27T13:06:56.514Z,13.67
2017-09-27T13:09:24.809Z,14.43
2017-09-27T13:11:52.417Z,12.97
2017-09-27T13:14:19.992Z,12.30
2017-09-27T13:16:47.925Z,14.50
2017-09-27T13:19:15.523Z,12.37
2017-09-27T13:21:43.119Z,15.53
2017-09-27T13:24:12.079Z,15.60
2017-09-27T13:26:40.296Z,14.63
2017-09-27T13:29:08.808Z,19.93
2017-09-27T13:31:37.415Z,18.10
2017-09-27T13:34:04.961Z,19.57
2017-09-27T13:36:32.653Z,22.07
2017-09-27T13:39:00.245Z,22.40
2017-09-27T13:41:27.812Z,21.80
2017-09-27T13:43:55.409Z,21.87
2017-09-27T13:46:22.963Z,22.33
2017-09-27T13:48:50.536Z,24.40
2017-09-27T13:51:18.107Z,23.60
2017-09-27T13:53:45.653Z,24.30
2017-09-27T13:56:13.221Z,24.07
2017-09-27T13:58:41.614Z,25.00
2017-09-27T14:01:09.172Z,24.27
2017-09-27T14:03:37.151Z,23.57
2017-09-27T14:06:04.901Z,24.17
2017-09-27T14:08:32.455Z,23.70
2017-09-27T14:11:00.030Z,22.97
2017-09-27T14:13:27.600Z,23.60
2017-09-27T14:15:55.584Z,22.63
2017-09-27T14:18:23.161Z,22.13
2017-09-27T14:20:50.855Z,22.80
2017-09-27T14:23:18.429Z,23.30
2017-09-27T14:25:46.705Z,24.03
2017-09-27T14:28:14.275Z,24.53
2017-09-27T14:30:41.875Z,23.50
2017-09-27T14:33:09.454Z,22.63
2017-09-27T14:35:37.036Z,23.20
2017-09-27T14:38:04.626Z,24.10
2017-09-27T14:40:32.197Z,24.07
2017-09-27T14:42:59.830Z,23.90
2017-09-27T14:45:27.385Z,23.00
2017-09-27T14:47:55.310Z,23.27
2017-09-27T14:50:22.890Z,25.50
2017-09-27T14:52:50.463Z,22.60
2017-09-27T14:55:18.077Z,23.00
2017-09-27T14:57:45.671Z,22.73
2017-09-27T15:00:13.268Z,23.70
2017-09-27T15:02:41.291Z,21.60
2017-09-27T15:05:08.894Z,22.60
2017-09-27T15:07:36.483Z,21.83
2017-09-27T15:10:04.059Z,22.57
2017-09-27T15:12:31.624Z,21.50
2017-09-27T15:14:59.236Z,20.87
2017-09-27T15:17:26.817Z,22.53
2017-09-27T15:19:54.433Z,20.40
2017-09-27T15:22:22.022Z,21.40
2017-09-27T15:24:49.569Z,21.60
2017-09-27T15:27:17.201Z,20.07
2017-09-27T15:29:44.775Z,22.17
2017-09-27T15:32:12.357Z,20.37
2017-09-27T15:34:39.944Z,19.87
2017-09-27T15:37:07.548Z,20.43
2017-09-27T15:39:35.496Z,20.60
2017-09-27T15:42:03.811Z,22.83
2017-09-27T15:44:31.490Z,20.30
2017-09-27T15:46:59.061Z,20.30
2017-09-27T15:49:26.632Z,21.30
2017-09-27T15:51:54.220Z,22.30
2017-09-27T15:54:21.771Z,21.60
2017-09-27T15:56:49.492Z,22.57
2017-09-27T15:59:17.132Z,22.63
2017-09-27T16:01:45.982Z,22.00
2017-09-27T16:04:13.574Z,21.70
2017-09-27T16:06:41.151Z,21.50
2017-09-27T16:09:09.185Z,20.67
2017-09-27T16:11:36.770Z,20.80
2017-09-27T16:14:04.338Z,19.83
2017-09-27T16:16:32.106Z,21.97
2017-09-27T16:18:59.666Z,20.60
2017-09-27T16:21:27.274Z,20.90
2017-09-27T16:23:54.839Z,21.10
2017-09-27T16:26:22.432Z,20.40
2017-09-27T16:28:50.386Z,18.97
2017-09-27T16:31:17.991Z,21.63
2017-09-27T16:33:45.571Z,22.13
2017-09-27T16:36:13.175Z,21.27
2017-09-27T16:38:40.733Z,21.57
2017-09-27T16:41:08.333Z,21.60
2017-09-27T16:43:35.959Z,23.50
2017-09-27T16:46:03.542Z,22.90
2017-09-27T16:48:31.124Z,23.27
2017-09-27T16:50:59.052Z,23.50
2017-09-27T16:53:26.646Z,22.43
2017-09-27T16:55:54.197Z,23.07
2017-09-27T16:58:23.237Z,24.37
2017-09-27T17:00:51.280Z,23.40
2017-09-27T17:03:18.922Z,25.50
2017-09-27T17:05:46.497Z,26.40
2017-09-27T17:08:16.500Z,23.77
2017-09-27T17:10:45.088Z,24.30
2017-09-27T17:13:12.682Z,23.10
2017-09-27T17:15:40.274Z,23.60
2017-09-27T17:18:08.564Z,20.87
2017-09-27T17:20:36.153Z,21.70
2017-09-27T17:23:04.039Z,24.00
2017-09-27T17:25:31.672Z,21.93
2017-09-27T17:27:59.281Z,21.13
2017-09-27T17:30:27.451Z,21.90
2017-09-27T17:32:55.069Z,22.53
2017-09-27T17:35:22.690Z,22.37
2017-09-27T17:37:50.280Z,21.77
2017-09-27T17:40:18.539Z,22.63
2017-09-27T17:42:46.888Z,21.03
2017-09-27T17:45:14.459Z,21.27
2017-09-27T17:47:42.060Z,22.40
2017-09-27T17:50:11.017Z,24.20
2017-09-27T17:52:38.646Z,24.30
2017-09-27T17:55:06.577Z,27.83
2017-09-27T17:57:34.203Z,26.20
2017-09-27T18:00:02.233Z,25.07
2017-09-27T18:02:30.209Z,25.37
2017-09-27T18:05:13.397Z,24.23
2017-09-27T18:07:48.495Z,22.10
2017-09-27T18:10:22.186Z,21.50
2017-09-27T18:13:00.848Z,22.77
2017-09-27T18:15:34.685Z,23.50
2017-09-27T18:21:08.878Z,22.20
2017-09-27T18:23:38.872Z,23.37
2017-09-27T18:26:06.481Z,21.10
2017-09-27T18:28:34.765Z,21.70
2017-09-27T18:31:03.048Z,20.80
2017-09-27T18:33:30.625Z,21.47
2017-09-27T18:35:59.880Z,21.83
2017-09-27T18:38:27.466Z,22.70
2017-09-27T18:40:57.836Z,21.43
2017-09-27T18:43:30.680Z,21.87
2017-09-27T18:45:58.770Z,21.37
2017-09-27T18:48:26.380Z,22.50
2017-09-27T18:50:55.921Z,21.30
2017-09-27T18:53:23.513Z,23.00
2017-09-27T18:55:53.119Z,19.57
2017-09-27T18:58:20.712Z,20.30
2017-09-27T19:00:48.750Z,19.50
2017-09-27T19:03:17.740Z,20.47
2017-09-27T19:05:46.127Z,21.10
2017-09-27T19:08:14.182Z,21.00
2017-09-27T19:10:43.981Z,21.27
2017-09-27T19:13:11.677Z,20.40
2017-09-27T19:15:39.270Z,21.67
2017-09-27T19:18:08.242Z,20.57
2017-09-27T19:20:36.642Z,21.47
2017-09-27T19:23:04.720Z,20.57
2017-09-27T19:25:32.339Z,19.90
2017-09-27T19:28:00.289Z,22.30
2017-09-27T19:30:28.314Z,20.70
2017-09-27T19:32:56.373Z,22.90
2017-09-27T19:35:25.321Z,22.47
2017-09-27T19:37:56.042Z,22.37
2017-09-27T19:40:24.449Z,21.70
2017-09-27T19:42:52.051Z,22.00
2017-09-27T19:45:20.095Z,23.50
2017-09-27T19:47:47.641Z,24.50
2017-09-27T19:50:15.303Z,23.67
2017-09-27T19:52:42.928Z,22.30
2017-09-27T19:55:10.562Z,22.53
2017-09-27T19:57:38.163Z,23.10
2017-09-27T20:00:08.013Z,23.27
2017-09-27T20:02:38.470Z,22.07
2017-09-27T20:05:06.083Z,21.37
2017-09-27T20:07:34.059Z,22.40
2017-09-27T20:10:01.963Z,22.53
2017-09-27T20:12:30.190Z,19.73
2017-09-27T20:14:58.092Z,20.33
2017-09-27T20:17:25.818Z,21.20
2017-09-27T20:19:53.764Z,20.20
2017-09-27T20:22:21.749Z,19.30
2017-09-27T20:24:50.583Z,18.20
2017-09-27T20:27:18.200Z,19.33
2017-09-27T20:29:46.585Z,17.90
2017-09-27T20:32:14.655Z,17.17
2017-09-27T20:34:42.248Z,19.07
2017-09-27T20:37:10.659Z,19.60
2017-09-27T20:39:38.279Z,17.97
2017-09-27T20:42:07.119Z,19.20
2017-09-27T20:44:34.767Z,20.00
2017-09-27T20:47:02.350Z,18.87
2017-09-27T20:49:31.485Z,18.80
2017-09-27T20:51:59.451Z,21.50
2017-09-27T20:54:27.406Z,20.10
2017-09-27T20:56:54.995Z,19.83
2017-09-27T20:59:24.183Z,21.40
2017-09-27T21:01:51.753Z,20.17
2017-09-27T21:04:20.509Z,19.00
2017-09-27T21:06:48.507Z,20.37
2017-09-27T21:09:16.198Z,20.70
2017-09-27T21:11:43.796Z,19.53
2017-09-27T21:14:11.378Z,20.33
2017-09-27T21:16:39.121Z,19.53
2017-09-27T21:19:07.962Z,18.53
2017-09-27T21:21:36.852Z,18.03
2017-09-27T21:24:04.420Z,19.60
2017-09-27T21:26:32.025Z,17.37
2017-09-27T21:28:59.608Z,19.90
2017-09-27T21:31:27.231Z,17.47
2017-09-27T21:33:55.185Z,18.40
2017-09-27T21:36:22.863Z,18.03
2017-09-27T21:38:50.909Z,16.17
2017-09-27T21:41:19.877Z,16.10
2017-09-27T21:43:47.587Z,16.40
2017-09-27T21:46:15.574Z,15.83
2017-09-27T21:48:44.515Z,15.90
2017-09-27T21:51:12.102Z,16.70
2017-09-27T21:53:39.711Z,17.00
2017-09-27T21:56:07.312Z,17.00
2017-09-27T21:58:36.996Z,17.70
2017-09-27T22:01:04.564Z,17.00
2017-09-27T22:03:32.440Z,16.83
2017-09-27T22:06:01.016Z,15.50
2017-09-27T22:08:28.612Z,15.30
2017-09-27T22:10:56.213Z,15.57
2017-09-27T22:13:25.233Z,14.70
2017-09-27T22:15:52.826Z,15.70
2017-09-27T22:18:20.412Z,14.77
2017-09-27T22:20:48.023Z,14.90
2017-09-27T22:23:15.629Z,15.30
2017-09-27T22:25:45.641Z,15.37
2017-09-27T22:28:13.220Z,16.20
2017-09-27T22:30:42.451Z,16.00
2017-09-27T22:33:10.091Z,17.00
2017-09-27T22:35:38.014Z,17.80
2017-09-27T22:38:05.623Z,17.40
2017-09-27T22:40:33.518Z,18.23
2017-09-27T22:43:01.118Z,18.20
2017-09-27T22:45:28.689Z,17.53
2017-09-27T22:47:57.915Z,16.97
2017-09-27T22:50:25.840Z,18.07
2017-09-27T22:52:55.109Z,16.77
2017-09-27T22:55:22.688Z,17.23
2017-09-27T22:57:50.318Z,16.90
2017-09-27T23:00:19.294Z,14.73
2017-09-27T23:02:46.901Z,15.67
2017-09-27T23:05:14.510Z,18.07
2017-09-27T23:07:44.556Z,18.10
2017-09-27T23:10:12.141Z,18.20
2017-09-27T23:12:39.940Z,17.00
2017-09-27T23:15:08.332Z,17.80
2017-09-27T23:17:36.008Z,17.80
2017-09-27T23:20:03.635Z,18.03
2017-09-27T23:22:36.490Z,18.13
2017-09-27T23:25:04.119Z,16.50
2017-09-27T23:27:31.717Z,16.90
2017-09-27T23:29:59.725Z,14.77
2017-09-27T23:32:27.358Z,12.50
2017-09-27T23:34:54.995Z,12.43
2017-09-27T23:37:23.012Z,11.63
2017-09-27T23:39:50.626Z,13.30
2017-09-27T23:42:19.644Z,11.60
2017-09-27T23:44:48.579Z,12.10
2017-09-27T23:47:16.177Z,13.53
2017-09-27T23:49:44.124Z,14.40
2017-09-27T23:52:12.224Z,14.67
2017-09-27T23:54:41.492Z,14.60
2017-09-27T23:57:11.841Z,16.03
2017-09-27T23:59:39.873Z,14.97
